createdAt,value
2023-02-22T00:00:43.084Z,26.48
2023-02-22T00:03:12.318Z,28.90
2023-02-22T00:05:39.340Z,27.38
2023-02-22T00:08:09.361Z,27.45
2023-02-22T00:10:38.372Z,23.57
2023-02-22T00:13:07.525Z,24.52
2023-02-22T00:15:34.898Z,25.08
2023-02-22T00:18:02.222Z,26.58
2023-02-22T00:20:28.768Z,30.67
2023-02-22T00:22:56.094Z,30.83
2023-02-22T00:25:25.210Z,24.50
2023-02-22T00:27:52.976Z,24.35
2023-02-22T00:30:26.910Z,22.70
2023-02-22T00:32:55.906Z,22.15
2023-02-22T00:35:28.434Z,23.97
2023-02-22T00:37:57.742Z,24.42
2023-02-22T00:40:33.302Z,20.38
2023-02-22T00:43:02.101Z,23.65
2023-02-22T00:45:31.167Z,22.08
2023-02-22T00:47:58.873Z,20.27
2023-02-22T00:50:30.720Z,18.80
2023-02-22T00:52:59.367Z,22.60
2023-02-22T00:55:29.276Z,19.08
2023-02-22T00:57:56.124Z,21.85
2023-02-22T01:00:34.602Z,21.33
2023-02-22T01:03:06.746Z,20.92
2023-02-22T01:05:33.906Z,18.30
2023-02-22T01:08:01.999Z,17.35
2023-02-22T01:10:30.640Z,19.83
2023-02-22T01:12:57.994Z,21.83
2023-02-22T01:15:28.974Z,24.23
2023-02-22T01:17:55.793Z,18.92
2023-02-22T01:20:23.132Z,19.10
2023-02-22T01:22:51.776Z,24.17
2023-02-22T01:25:24.419Z,22.07
2023-02-22T01:27:51.470Z,22.30
2023-02-22T01:30:24.111Z,24.00
2023-02-22T01:32:51.472Z,22.77
2023-02-22T01:35:23.176Z,19.08
2023-02-22T01:37:49.674Z,21.33
2023-02-22T01:40:29.596Z,19.42
2023-02-22T01:43:00.399Z,17.63
2023-02-22T01:45:29.991Z,19.67
2023-02-22T01:48:02.174Z,18.63
2023-02-22T01:50:31.034Z,22.20
2023-02-22T01:52:58.132Z,20.85
2023-02-22T01:55:25.550Z,16.05
2023-02-22T01:58:01.767Z,16.90
2023-02-22T02:00:28.257Z,19.00
2023-02-22T02:02:59.807Z,22.07
2023-02-22T02:05:28.170Z,22.77
2023-02-22T02:07:54.616Z,20.65
2023-02-22T02:10:21.586Z,21.98
2023-02-22T02:12:50.613Z,19.67
2023-02-22T02:15:25.267Z,26.47
2023-02-22T02:17:54.484Z,20.67
2023-02-22T02:20:57.069Z,23.58
2023-02-22T02:23:51.046Z,23.73
2023-02-22T02:26:23.438Z,24.90
2023-02-22T02:29:14.452Z,22.47
2023-02-22T02:32:18.110Z,26.65
2023-02-22T02:35:23.136Z,24.80
2023-02-22T02:38:04.554Z,24.20
2023-02-22T02:40:45.165Z,25.65
2023-02-22T02:43:21.533Z,25.30
2023-02-22T02:46:06.085Z,26.60
2023-02-22T02:48:34.868Z,28.98
2023-02-22T02:51:05.715Z,25.98
2023-02-22T02:53:38.958Z,25.52
2023-02-22T02:56:06.097Z,27.50
2023-02-22T02:58:32.569Z,27.80
2023-02-22T03:01:04.504Z,25.58
2023-02-22T03:03:43.161Z,25.55
2023-02-22T03:06:44.186Z,31.52
2023-02-22T03:09:22.450Z,31.93
2023-02-22T03:12:19.152Z,26.98
2023-02-22T03:15:02.949Z,32.35
2023-02-22T03:17:51.496Z,26.60
2023-02-22T03:20:32.039Z,28.08
2023-02-22T03:23:10.456Z,33.17
2023-02-22T03:25:47.313Z,29.20
2023-02-22T03:28:17.411Z,28.92
2023-02-22T03:31:07.729Z,27.65
2023-02-22T03:33:50.606Z,28.20
2023-02-22T03:36:24.855Z,26.77
2023-02-22T03:38:55.547Z,30.42
2023-02-22T03:41:25.366Z,30.02
2023-02-22T03:44:04.356Z,32.47
2023-02-22T03:46:32.669Z,33.50
2023-02-22T03:49:04.744Z,31.47
2023-02-22T03:51:31.298Z,31.15
2023-02-22T03:53:57.934Z,28.48
2023-02-22T03:56:35.629Z,30.02
2023-02-22T03:59:10.816Z,34.70
2023-02-22T04:01:37.474Z,30.73
2023-02-22T04:04:04.998Z,34.17
2023-02-22T04:06:31.482Z,31.15
2023-02-22T04:08:57.902Z,33.97
2023-02-22T04:11:24.432Z,33.53
2023-02-22T04:13:50.890Z,31.73
2023-02-22T04:16:17.503Z,39.25
2023-02-22T04:18:44.095Z,31.38
2023-02-22T04:21:10.475Z,31.83
2023-02-22T04:23:36.988Z,32.42
2023-02-22T04:26:03.523Z,32.37
2023-02-22T04:28:30.017Z,38.78
2023-02-22T04:30:56.498Z,35.58
2023-02-22T04:33:22.978Z,40.03
2023-02-22T04:35:49.604Z,37.25
2023-02-22T04:38:16.007Z,33.73
2023-02-22T04:40:42.603Z,32.50
2023-02-22T04:43:09.124Z,30.95
2023-02-22T04:45:36.047Z,38.08
2023-02-22T04:48:02.654Z,31.35
2023-02-22T04:50:29.383Z,31.63
2023-02-22T04:52:56.405Z,36.17
2023-02-22T04:55:22.813Z,32.00
2023-02-22T04:57:49.293Z,38.58
2023-02-22T05:00:17.953Z,32.80
2023-02-22T05:02:45.450Z,39.87
2023-02-22T05:05:17.657Z,38.10
2023-02-22T05:07:44.484Z,37.08
2023-02-22T05:10:36.679Z,32.75
2023-02-22T05:13:04.189Z,34.97
2023-02-22T05:15:30.716Z,39.57
2023-02-22T05:17:57.357Z,43.53
2023-02-22T05:20:30.477Z,38.65
2023-02-22T05:22:59.076Z,37.53
2023-02-22T05:25:29.500Z,39.30
2023-02-22T05:28:00.247Z,35.53
2023-02-22T05:30:30.704Z,37.45
2023-02-22T05:32:57.202Z,40.33
2023-02-22T05:35:23.966Z,42.97
2023-02-22T05:37:50.940Z,40.05
2023-02-22T05:40:25.274Z,44.20
2023-02-22T05:42:53.310Z,43.20
2023-02-22T05:45:22.139Z,44.25
2023-02-22T05:47:49.014Z,42.58
2023-02-22T05:50:16.601Z,47.17
2023-02-22T05:52:43.014Z,45.33
2023-02-22T05:55:11.300Z,40.40
2023-02-22T05:57:37.728Z,44.30
2023-02-22T06:00:06.894Z,41.28
2023-02-22T06:02:33.901Z,38.97
2023-02-22T06:05:00.637Z,50.87
2023-02-22T06:07:27.410Z,51.83
2023-02-22T06:09:53.949Z,52.28
2023-02-22T06:12:20.620Z,56.33
2023-02-22T06:14:49.805Z,50.90
2023-02-22T06:17:19.714Z,50.07
2023-02-22T06:19:47.357Z,51.85
2023-02-22T06:22:19.220Z,50.35
2023-02-22T06:24:45.931Z,51.20
2023-02-22T06:27:12.410Z,47.28
2023-02-22T06:29:41.333Z,53.20
2023-02-22T06:32:08.118Z,58.20
2023-02-22T06:34:34.721Z,52.08
2023-02-22T06:37:01.134Z,61.55
2023-02-22T06:39:36.328Z,48.08
2023-02-22T06:42:02.943Z,46.63
2023-02-22T06:44:29.509Z,50.00
2023-02-22T06:46:56.593Z,48.55
2023-02-22T06:49:22.975Z,59.20
2023-02-22T06:51:49.439Z,53.33
2023-02-22T06:54:16.093Z,45.77
2023-02-22T06:56:42.577Z,52.50
2023-02-22T06:59:09.085Z,45.55
2023-02-22T07:01:36.091Z,45.58
2023-02-22T07:04:02.856Z,49.88
2023-02-22T07:06:29.490Z,48.53
2023-02-22T07:08:55.975Z,46.83
2023-02-22T07:11:22.499Z,48.30
2023-02-22T07:13:49.053Z,56.70
2023-02-22T07:16:15.628Z,58.20
2023-02-22T07:18:43.413Z,62.33
2023-02-22T07:21:10.871Z,60.85
2023-02-22T07:23:37.834Z,64.90
2023-02-22T07:26:05.484Z,60.30
2023-02-22T07:28:32.062Z,59.97
2023-02-22T07:30:58.964Z,51.67
2023-02-22T07:33:25.860Z,55.80
2023-02-22T07:35:52.328Z,49.50
2023-02-22T07:38:20.830Z,50.10
2023-02-22T07:40:47.336Z,50.05
2023-02-22T07:43:23.803Z,49.83
2023-02-22T07:45:52.788Z,53.60
2023-02-22T07:48:21.646Z,48.67
2023-02-22T07:50:48.942Z,56.85
2023-02-22T07:53:18.389Z,54.10
2023-02-22T07:55:44.912Z,55.83
2023-02-22T07:58:17.088Z,53.45
2023-02-22T08:00:44.244Z,42.05
2023-02-22T08:03:13.828Z,41.83
2023-02-22T08:05:44.866Z,52.25
2023-02-22T08:08:18.183Z,41.83
2023-02-22T08:10:47.410Z,50.90
2023-02-22T08:13:14.177Z,44.88
2023-02-22T08:15:42.105Z,50.58
2023-02-22T08:18:12.095Z,57.88
2023-02-22T08:20:40.612Z,53.43
2023-02-22T08:23:07.936Z,49.35
2023-02-22T08:25:34.928Z,54.50
2023-02-22T08:28:04.945Z,39.72
2023-02-22T08:30:32.427Z,36.40
2023-02-22T08:32:59.767Z,30.53
2023-02-22T08:35:27.655Z,31.55
2023-02-22T08:37:58.535Z,33.80
2023-02-22T08:40:27.976Z,29.42
2023-02-22T08:42:55.037Z,30.50
2023-02-22T08:45:21.556Z,30.20
2023-02-22T08:47:48.206Z,32.03
2023-02-22T08:50:28.634Z,35.08
2023-02-22T08:52:58.641Z,33.28
2023-02-22T08:55:28.121Z,32.97
2023-02-22T08:57:54.477Z,31.00
2023-02-22T09:00:28.825Z,32.47
2023-02-22T09:03:05.535Z,29.52
2023-02-22T09:05:33.005Z,31.27
2023-02-22T09:08:00.757Z,28.35
2023-02-22T09:10:31.452Z,35.17
2023-02-22T09:15:51.516Z,34.53
2023-02-22T09:18:18.284Z,31.95
2023-02-22T09:20:45.230Z,31.75
2023-02-22T09:23:14.563Z,32.50
2023-02-22T09:25:41.321Z,30.45
2023-02-22T09:28:07.950Z,30.42
2023-02-22T09:30:36.404Z,29.85
2023-02-22T09:33:12.447Z,31.33
2023-02-22T09:35:46.649Z,34.57
2023-02-22T09:38:16.824Z,32.55
2023-02-22T09:41:00.003Z,32.42
2023-02-22T09:43:53.636Z,32.95
2023-02-22T09:46:23.189Z,31.52
2023-02-22T09:49:22.339Z,29.03
2023-02-22T09:51:52.652Z,30.40
2023-02-22T09:54:36.332Z,28.10
2023-02-22T09:57:09.028Z,32.00
2023-02-22T09:59:42.783Z,29.42
2023-02-22T10:02:24.815Z,34.13
2023-02-22T10:05:05.863Z,31.83
2023-02-22T10:07:39.174Z,32.85
2023-02-22T10:10:07.672Z,30.77
2023-02-22T10:12:40.776Z,30.20
2023-02-22T10:15:34.560Z,32.40
2023-02-22T10:18:42.803Z,30.60
2023-02-22T10:21:20.325Z,36.10
2023-02-22T10:23:58.629Z,30.02
2023-02-22T10:26:33.092Z,28.10
2023-02-22T10:29:02.718Z,30.53
2023-02-22T10:31:35.853Z,28.77
2023-02-22T10:34:05.791Z,26.42
2023-02-22T10:36:34.366Z,27.55
2023-02-22T10:39:27.138Z,28.52
2023-02-22T10:41:58.069Z,27.17
2023-02-22T10:44:25.235Z,29.83
2023-02-22T10:46:53.709Z,29.85
2023-02-22T10:49:23.839Z,24.50
2023-02-22T10:52:01.463Z,26.80
2023-02-22T10:54:36.839Z,23.40
2023-02-22T10:57:04.025Z,26.13
2023-02-22T10:59:45.238Z,26.42
2023-02-22T11:02:30.823Z,28.05
2023-02-22T11:05:00.370Z,25.92
2023-02-22T11:07:30.521Z,23.90
2023-02-22T11:10:03.410Z,28.00
2023-02-22T11:12:38.463Z,26.67
2023-02-22T11:15:30.339Z,24.92
2023-02-22T11:18:01.198Z,27.83
2023-02-22T11:20:34.616Z,27.33
2023-02-22T11:23:03.532Z,25.80
2023-02-22T11:25:42.648Z,27.77
2023-02-22T11:28:15.781Z,27.38
2023-02-22T11:30:44.804Z,30.45
2023-02-22T11:33:17.341Z,28.77
2023-02-22T11:35:58.410Z,28.23
2023-02-22T11:38:33.413Z,29.30
2023-02-22T11:41:14.806Z,32.10
2023-02-22T11:43:43.607Z,32.25
2023-02-22T11:46:15.429Z,30.07
2023-02-22T11:48:55.626Z,34.22
2023-02-22T11:51:34.410Z,33.65
2023-02-22T11:54:25.458Z,32.30
2023-02-22T11:56:55.723Z,32.20
2023-02-22T11:59:41.008Z,27.73
2023-02-22T12:02:56.558Z,29.17
2023-02-22T12:05:59.702Z,34.67
2023-02-22T12:08:44.489Z,32.58
2023-02-22T12:11:27.569Z,31.00
2023-02-22T12:14:02.856Z,24.97
2023-02-22T12:16:45.953Z,27.98
2023-02-22T12:19:30.842Z,30.02
2023-02-22T12:22:02.583Z,34.22
2023-02-22T12:24:44.586Z,32.08
2023-02-22T12:27:20.645Z,31.63
2023-02-22T12:29:53.164Z,31.75
2023-02-22T12:32:35.386Z,28.08
2023-02-22T12:35:11.793Z,31.45
2023-02-22T12:38:16.024Z,31.75
2023-02-22T12:41:09.437Z,28.83
2023-02-22T12:43:51.871Z,28.10
2023-02-22T12:46:33.912Z,27.83
2023-02-22T12:49:19.533Z,33.35
2023-02-22T12:52:20.860Z,29.60
2023-02-22T12:55:13.029Z,27.60
2023-02-22T12:58:07.735Z,26.50
2023-02-22T13:01:07.132Z,28.25
2023-02-22T13:03:40.390Z,28.88
2023-02-22T13:06:25.873Z,29.05
2023-02-22T13:08:58.296Z,26.23
2023-02-22T13:11:40.965Z,28.35
2023-02-22T13:14:50.013Z,28.88
2023-02-22T13:17:29.271Z,27.67
2023-02-22T13:20:22.204Z,26.55
2023-02-22T13:23:07.376Z,30.23
2023-02-22T13:25:47.183Z,23.90
2023-02-22T13:28:29.270Z,27.55
2023-02-22T13:31:09.309Z,25.13
2023-02-22T13:33:47.853Z,24.60
2023-02-22T13:36:29.493Z,23.97
2023-02-22T13:39:15.692Z,25.10
2023-02-22T13:42:14.133Z,26.17
2023-02-22T13:44:49.660Z,24.80
2023-02-22T13:47:28.159Z,23.80
2023-02-22T13:50:22.412Z,23.63
2023-02-22T13:52:52.028Z,24.75
2023-02-22T13:55:28.319Z,26.38
2023-02-22T13:58:04.902Z,23.50
2023-02-22T14:00:57.644Z,22.27
2023-02-22T14:03:40.702Z,22.60
2023-02-22T14:06:32.187Z,23.40
2023-02-22T14:09:19.065Z,20.95
2023-02-22T14:11:47.876Z,25.17
2023-02-22T14:14:17.860Z,23.55
2023-02-22T14:16:45.166Z,22.67
2023-02-22T14:19:23.796Z,24.88
2023-02-22T14:22:02.065Z,24.50
2023-02-22T14:24:40.368Z,23.23
2023-02-22T14:27:06.836Z,24.17
2023-02-22T14:29:33.420Z,25.23
2023-02-22T14:32:11.143Z,22.08
2023-02-22T14:34:44.336Z,18.98
2023-02-22T14:37:26.353Z,21.88
2023-02-22T14:40:02.413Z,20.40
2023-02-22T14:42:35.930Z,21.70
2023-02-22T14:45:14.254Z,21.23
2023-02-22T14:47:54.637Z,18.15
2023-02-22T14:50:27.839Z,18.23
2023-02-22T14:53:29.646Z,20.80
2023-02-22T14:56:04.696Z,18.87
2023-02-22T14:58:57.704Z,17.33
2023-02-22T15:01:48.876Z,20.48
2023-02-22T15:04:32.978Z,19.05
2023-02-22T15:07:07.591Z,18.90
2023-02-22T15:09:37.508Z,17.57
2023-02-22T15:12:04.012Z,16.73
2023-02-22T15:14:39.124Z,19.05
2023-02-22T15:17:16.961Z,15.00
2023-02-22T15:19:43.938Z,18.95
2023-02-22T15:22:25.191Z,20.90
2023-02-22T15:25:01.502Z,22.48
2023-02-22T15:27:28.794Z,18.52
2023-02-22T15:30:05.018Z,20.02
2023-02-22T15:33:03.099Z,19.85
2023-02-22T15:35:33.352Z,19.17
2023-02-22T15:38:10.725Z,16.52
2023-02-22T15:40:42.907Z,18.88
2023-02-22T15:43:28.598Z,16.33
2023-02-22T15:45:56.354Z,19.55
2023-02-22T15:48:26.560Z,21.57
2023-02-22T15:51:13.882Z,16.63
2023-02-22T15:53:44.117Z,16.90
2023-02-22T15:56:16.964Z,22.25
2023-02-22T15:58:53.053Z,16.63
2023-02-22T16:01:20.879Z,22.33
2023-02-22T16:03:51.019Z,18.17
2023-02-22T16:06:33.521Z,19.88
2023-02-22T16:09:06.964Z,19.58
2023-02-22T16:11:45.494Z,21.58
2023-02-22T16:14:25.042Z,21.03
2023-02-22T16:17:14.152Z,19.02
2023-02-22T16:19:44.213Z,17.45
2023-02-22T16:22:26.988Z,18.27
2023-02-22T16:24:54.604Z,18.85
2023-02-22T16:27:24.558Z,22.00
2023-02-22T16:30:23.197Z,24.00
2023-02-22T16:32:51.828Z,18.75
2023-02-22T16:35:18.800Z,23.20
2023-02-22T16:37:54.899Z,21.67
2023-02-22T16:40:37.510Z,22.93
2023-02-22T16:43:11.987Z,20.15
2023-02-22T16:45:40.160Z,22.50
2023-02-22T16:48:19.834Z,21.98
2023-02-22T16:50:48.488Z,20.80
2023-02-22T16:53:20.105Z,24.57
2023-02-22T16:55:52.545Z,20.77
2023-02-22T16:58:19.270Z,28.85
2023-02-22T17:00:45.843Z,19.35
2023-02-22T17:03:18.051Z,21.85
2023-02-22T17:05:44.903Z,19.00
2023-02-22T17:08:11.580Z,20.48
2023-02-22T17:10:38.051Z,22.60
2023-02-22T17:13:22.976Z,21.55
2023-02-22T17:15:51.014Z,21.77
2023-02-22T17:18:23.084Z,25.80
2023-02-22T17:20:51.120Z,24.90
2023-02-22T17:23:18.842Z,19.23
2023-02-22T17:25:50.878Z,26.88
2023-02-22T17:28:17.374Z,31.85
2023-02-22T17:30:47.340Z,30.43
2023-02-22T17:33:17.154Z,29.10
2023-02-22T17:35:44.451Z,30.30
2023-02-22T17:38:10.902Z,27.33
2023-02-22T17:40:39.625Z,29.67
2023-02-22T17:43:08.916Z,32.50
2023-02-22T17:45:39.315Z,37.70
2023-02-22T17:48:06.156Z,35.50
2023-02-22T17:50:32.849Z,35.00
2023-02-22T17:53:02.487Z,35.60
2023-02-22T17:55:30.173Z,37.30
2023-02-22T17:58:00.464Z,39.92
2023-02-22T18:00:35.317Z,38.95
2023-02-22T18:03:07.510Z,37.03
2023-02-22T18:05:40.337Z,44.80
2023-02-22T18:08:07.383Z,38.47
2023-02-22T18:10:33.853Z,41.70
2023-02-22T18:13:02.158Z,41.65
2023-02-22T18:15:29.508Z,56.70
2023-02-22T18:17:56.309Z,45.92
2023-02-22T18:20:44.028Z,46.60
2023-02-22T18:23:16.790Z,36.80
2023-02-22T18:26:07.743Z,40.75
2023-02-22T18:28:36.544Z,42.47
2023-02-22T18:31:07.880Z,44.10
2023-02-22T18:33:34.468Z,44.13
2023-02-22T18:36:01.052Z,47.03
2023-02-22T18:38:27.885Z,46.05
2023-02-22T18:41:06.873Z,51.13
2023-02-22T18:43:36.731Z,49.50
2023-02-22T18:46:11.469Z,46.33
2023-02-22T18:48:38.649Z,51.58
2023-02-22T18:51:09.633Z,48.08
2023-02-22T18:53:38.001Z,51.22
2023-02-22T18:56:07.220Z,56.47
2023-02-22T18:58:40.934Z,56.47
2023-02-22T19:01:07.626Z,54.05
2023-02-22T19:03:38.285Z,60.05
2023-02-22T19:06:10.550Z,55.55
2023-02-22T19:08:42.651Z,53.70
2023-02-22T19:11:12.083Z,59.03
2023-02-22T19:13:38.689Z,59.80
2023-02-22T19:16:07.343Z,61.45
2023-02-22T19:18:34.109Z,54.58
2023-02-22T19:21:03.165Z,64.20
2023-02-22T19:23:34.925Z,67.23
2023-02-22T19:26:03.157Z,62.15
2023-02-22T19:28:34.327Z,63.25
2023-02-22T19:31:40.262Z,59.50
2023-02-22T19:34:10.915Z,60.58
2023-02-22T19:36:39.208Z,60.63
2023-02-22T19:39:05.845Z,57.15
2023-02-22T19:41:32.432Z,64.03
2023-02-22T19:43:59.277Z,65.63
2023-02-22T19:46:25.821Z,61.65
2023-02-22T19:48:55.152Z,69.77
2023-02-22T19:51:26.196Z,67.20
2023-02-22T19:54:05.327Z,65.78
2023-02-22T19:56:38.084Z,66.95
2023-02-22T19:59:09.540Z,65.22
2023-02-22T20:01:36.796Z,60.50
2023-02-22T20:04:06.119Z,62.60
2023-02-22T20:06:43.049Z,60.78
2023-02-22T20:09:14.028Z,65.00
2023-02-22T20:11:40.629Z,65.28
2023-02-22T20:14:07.109Z,58.80
2023-02-22T20:16:35.414Z,49.15
2023-02-22T20:19:09.166Z,57.70
2023-02-22T20:21:36.609Z,65.53
2023-02-22T20:24:06.910Z,58.55
2023-02-22T20:26:35.505Z,55.80
2023-02-22T20:29:04.258Z,49.08
2023-02-22T20:31:32.849Z,53.53
2023-02-22T20:34:00.977Z,58.35
2023-02-22T20:36:29.468Z,59.35
2023-02-22T20:38:59.135Z,55.47
2023-02-22T20:41:28.022Z,58.25
2023-02-22T20:43:55.913Z,52.45
2023-02-22T20:46:24.679Z,54.40
2023-02-22T20:48:58.577Z,61.50
2023-02-22T20:51:26.632Z,51.93
2023-02-22T20:53:53.961Z,57.50
2023-02-22T20:56:23.089Z,59.92
2023-02-22T20:58:53.399Z,59.90
2023-02-22T21:01:22.391Z,59.40
2023-02-22T21:03:49.947Z,57.73
2023-02-22T21:06:18.733Z,54.08
2023-02-22T21:08:49.194Z,57.00
2023-02-22T21:11:18.228Z,63.10
2023-02-22T21:13:45.122Z,56.45
2023-02-22T21:16:21.474Z,60.23
2023-02-22T21:18:53.985Z,56.05
2023-02-22T21:21:21.464Z,55.45
2023-02-22T21:23:50.500Z,49.35
2023-02-22T21:26:20.914Z,57.17
2023-02-22T21:28:51.152Z,55.73
2023-02-22T21:31:19.782Z,54.97
2023-02-22T21:33:53.047Z,59.22
2023-02-22T21:36:20.845Z,55.80
2023-02-22T21:38:53.481Z,53.45
2023-02-22T21:41:21.277Z,50.40
2023-02-22T21:43:51.808Z,51.92
2023-02-22T21:46:19.121Z,54.80
2023-02-22T21:48:48.757Z,54.58
2023-02-22T21:51:17.590Z,57.53
2023-02-22T21:53:48.761Z,59.80
2023-02-22T21:56:19.651Z,56.72
2023-02-22T21:58:47.529Z,52.83
2023-02-22T22:01:17.547Z,50.30
2023-02-22T22:03:45.319Z,51.90
2023-02-22T22:06:13.718Z,52.13
2023-02-22T22:08:43.168Z,48.22
2023-02-22T22:11:30.526Z,49.72
2023-02-22T22:13:58.144Z,48.40
2023-02-22T22:16:27.678Z,52.30
2023-02-22T22:18:55.346Z,54.17
2023-02-22T22:21:23.950Z,51.47
2023-02-22T22:23:54.489Z,48.92
2023-02-22T22:26:22.185Z,52.58
2023-02-22T22:28:51.987Z,41.80
2023-02-22T22:31:21.067Z,52.77
2023-02-22T22:33:47.861Z,48.63
2023-02-22T22:36:16.668Z,44.08
2023-02-22T22:38:46.909Z,45.70
2023-02-22T22:41:15.557Z,46.72
2023-02-22T22:43:56.517Z,49.53
2023-02-22T22:46:23.425Z,49.13
2023-02-22T22:48:58.421Z,48.17
2023-02-22T22:51:24.977Z,46.50
2023-02-22T22:53:51.969Z,46.25
2023-02-22T22:56:21.733Z,45.40
2023-02-22T22:58:54.186Z,37.40
2023-02-22T23:01:27.151Z,43.70
2023-02-22T23:03:55.619Z,44.63
2023-02-22T23:06:28.181Z,48.63
2023-02-22T23:09:19.064Z,45.43
2023-02-22T23:11:53.616Z,48.83
2023-02-22T23:14:24.215Z,39.00
2023-02-22T23:16:59.955Z,41.22
2023-02-22T23:19:26.577Z,45.38
2023-02-22T23:21:53.041Z,44.23
2023-02-22T23:24:21.193Z,42.88
2023-02-22T23:26:51.420Z,46.05
2023-02-22T23:29:28.061Z,47.60
2023-02-22T23:31:55.088Z,43.20
2023-02-22T23:34:23.329Z,42.47
2023-02-22T23:36:53.841Z,41.08
2023-02-22T23:39:23.207Z,44.40
2023-02-22T23:42:01.972Z,39.03
2023-02-22T23:44:28.982Z,38.03
2023-02-22T23:46:56.165Z,40.90
2023-02-22T23:49:35.544Z,45.28
2023-02-22T23:52:03.029Z,40.88
2023-02-22T23:54:36.287Z,41.47
2023-02-22T23:57:04.611Z,34.70
2023-02-22T23:59:32.167Z,44.30
